Time;durP1;ratioP1;P1;durP2;ratioP2;P2;SDS_P1;SDS_P2;PMS_P1;PMS_P2;Temp;Humidity;BMP_temperature;BMP_pressure;BME280_temperature;BME280_humidity;BME280_pressure;Samples;Min_cycle;Max_cycle;Signal;HPM_P1;HPM_P2
2021/09/15 00:00:08;;;;;;;10.02;5.30;;;13.10;99.90;;;;;;4993431;28;20500;-64
2021/09/15 00:02:34;;;;;;;7.07;5.95;;;13.10;99.90;;;;;;4993618;28;20022;-64
2021/09/15 00:04:59;;;;;;;9.52;7.53;;;13.10;99.90;;;;;;4993366;28;20034;-61
2021/09/15 00:07:25;;;;;;;13.25;7.15;;;13.10;99.90;;;;;;4992244;28;20034;-63
2021/09/15 00:09:50;;;;;;;9.93;7.43;;;13.20;99.90;;;;;;4993277;28;20077;-63
2021/09/15 00:12:16;;;;;;;8.98;6.35;;;13.20;99.90;;;;;;4993347;28;20033;-63
2021/09/15 00:14:41;;;;;;;11.82;6.80;;;13.10;99.90;;;;;;4993009;28;20030;-62
2021/09/15 00:17:07;;;;;;;8.18;7.10;;;13.20;99.90;;;;;;4993408;28;20064;-64
2021/09/15 00:19:32;;;;;;;12.88;8.85;;;13.20;99.90;;;;;;4993275;28;20426;-61
2021/09/15 00:21:58;;;;;;;7.95;6.65;;;13.20;99.90;;;;;;4992233;28;20022;-64
2021/09/15 00:24:23;;;;;;;8.48;6.55;;;13.10;99.90;;;;;;4993165;28;20033;-62
2021/09/15 00:26:49;;;;;;;11.35;7.88;;;13.10;99.90;;;;;;4992900;28;20482;-63
2021/09/15 00:29:14;;;;;;;10.60;7.63;;;13.10;99.90;;;;;;4992842;28;20121;-62
2021/09/15 00:31:40;;;;;;;9.52;7.57;;;13.20;99.90;;;;;;4992902;28;20027;-64
2021/09/15 00:34:05;;;;;;;10.20;7.68;;;13.20;99.90;;;;;;4992999;28;20039;-63
2021/09/15 00:36:31;;;;;;;9.23;6.88;;;13.20;99.90;;;;;;4991938;28;20097;-63
2021/09/15 00:38:56;;;;;;;12.68;7.75;;;13.20;99.90;;;;;;4992890;28;20026;-64
2021/09/15 00:41:22;;;;;;;8.25;7.25;;;13.30;99.90;;;;;;4993469;28;20386;-63
2021/09/15 00:44:09;;;;;;;12.85;7.63;;;13.30;99.90;;;;;;4992613;28;20058;-64
2021/09/15 00:46:36;;;;;;;16.23;8.50;;;13.30;99.90;;;;;;4993190;28;20478;-64
2021/09/15 00:49:02;;;;;;;9.75;7.53;;;13.30;99.90;;;;;;4992600;28;20061;-64
2021/09/15 00:51:28;;;;;;;11.63;8.50;;;13.30;99.90;;;;;;4991947;28;20536;-63
2021/09/15 00:53:54;;;;;;;13.55;8.35;;;13.30;99.90;;;;;;4992574;28;20031;-64
2021/09/15 00:56:20;;;;;;;11.02;8.10;;;13.30;99.90;;;;;;4993509;28;20035;-64
2021/09/15 00:58:45;;;;;;;10.57;7.38;;;13.30;99.90;;;;;;4996654;28;20033;-62
2021/09/15 01:01:11;;;;;;;13.30;8.55;;;13.30;99.90;;;;;;4996876;28;20059;-64
2021/09/15 01:03:37;;;;;;;11.23;8.30;;;13.30;99.90;;;;;;4996771;28;20474;-64
2021/09/15 01:06:03;;;;;;;10.90;8.32;;;13.30;99.90;;;;;;4995512;28;20034;-62
2021/09/15 01:08:30;;;;;;;14.88;8.90;;;13.30;99.90;;;;;;4996732;28;20029;-63
2021/09/15 01:10:56;;;;;;;9.80;7.93;;;13.40;99.90;;;;;;4996603;28;20539;-63
2021/09/15 01:13:22;;;;;;;12.93;8.68;;;13.40;99.90;;;;;;4996586;28;20034;-60
2021/09/15 01:15:47;;;;;;;12.55;8.70;;;13.40;99.90;;;;;;4995242;28;20037;-64
2021/09/15 01:18:15;;;;;;;10.70;8.60;;;13.40;99.90;;;;;;4996579;28;20039;-64
2021/09/15 01:20:40;;;;;;;12.63;9.02;;;13.40;99.90;;;;;;4995101;28;20031;-63
2021/09/15 01:23:06;;;;;;;12.05;8.48;;;13.30;99.90;;;;;;4996417;28;20096;-64
2021/09/15 01:25:31;;;;;;;13.93;10.95;;;13.30;99.90;;;;;;4996205;28;20041;-63
2021/09/15 01:27:57;;;;;;;12.48;9.07;;;13.30;99.90;;;;;;4996319;28;20038;-64
2021/09/15 01:30:22;;;;;;;13.73;9.23;;;13.30;99.90;;;;;;4995016;28;20417;-64
2021/09/15 01:32:48;;;;;;;12.70;8.60;;;13.30;99.90;;;;;;4996353;28;20022;-64
2021/09/15 01:35:13;;;;;;;15.18;9.02;;;13.30;99.90;;;;;;4994745;28;20035;-62
2021/09/15 01:37:39;;;;;;;12.40;8.77;;;13.20;99.90;;;;;;4996339;28;20078;-64
2021/09/15 01:40:05;;;;;;;11.82;8.05;;;13.20;99.90;;;;;;4995953;28;20034;-64
2021/09/15 01:42:31;;;;;;;10.98;8.10;;;13.20;99.90;;;;;;4996227;28;20027;-63
2021/09/15 01:44:56;;;;;;;16.70;9.57;;;13.20;99.90;;;;;;4995784;28;20023;-63
2021/09/15 01:47:22;;;;;;;14.65;9.98;;;13.10;99.90;;;;;;4996019;28;20034;-63
2021/09/15 01:49:48;;;;;;;11.38;8.75;;;13.20;99.90;;;;;;4995829;28;20053;-64
2021/09/15 01:52:16;;;;;;;11.52;9.57;;;13.10;99.90;;;;;;4994763;28;20101;-63
2021/09/15 01:54:42;;;;;;;12.55;9.23;;;13.10;99.90;;;;;;4995795;28;20014;-63
2021/09/15 01:57:08;;;;;;;13.68;9.25;;;13.10;99.90;;;;;;4995790;28;20105;-64
2021/09/15 01:59:33;;;;;;;11.50;9.88;;;13.10;99.90;;;;;;4995639;28;20105;-64
2021/09/15 02:01:59;;;;;;;15.52;10.02;;;13.10;99.90;;;;;;4995770;28;20023;-63
2021/09/15 02:04:24;;;;;;;13.43;10.40;;;13.10;99.90;;;;;;4995936;28;20377;-64
2021/09/15 02:06:50;;;;;;;15.43;9.95;;;13.10;99.90;;;;;;4994592;28;20498;-64
2021/09/15 02:09:16;;;;;;;13.20;8.85;;;13.10;99.90;;;;;;4994127;28;20432;-63
2021/09/15 02:11:42;;;;;;;15.02;10.93;;;13.00;99.90;;;;;;4995560;28;20030;-64
2021/09/15 02:14:07;;;;;;;16.95;10.65;;;13.10;99.90;;;;;;4989045;28;20387;-64
2021/09/15 02:16:33;;;;;;;14.75;10.00;;;13.10;99.90;;;;;;4976075;28;20477;-63
2021/09/15 02:18:59;;;;;;;17.73;10.25;;;13.10;99.90;;;;;;4975828;28;20394;-63
2021/09/15 02:21:25;;;;;;;13.15;10.43;;;13.10;99.90;;;;;;4974979;28;20042;-64
2021/09/15 02:23:50;;;;;;;15.02;10.60;;;13.10;99.90;;;;;;4975874;28;20381;-59
2021/09/15 02:26:16;;;;;;;16.45;11.75;;;13.10;99.90;;;;;;4975530;28;20093;-63
2021/09/15 02:28:42;;;;;;;15.80;11.02;;;13.10;99.90;;;;;;4975777;28;20035;-64
2021/09/15 02:31:09;;;;;;;16.27;10.77;;;13.10;99.90;;;;;;4975521;28;20034;-64
2021/09/15 02:33:34;;;;;;;18.70;10.93;;;13.00;99.90;;;;;;4975816;28;20026;-64
2021/09/15 02:36:00;;;;;;;17.33;11.40;;;13.00;99.90;;;;;;4974346;28;20035;-62
2021/09/15 02:38:25;;;;;;;16.65;11.50;;;13.00;99.90;;;;;;4975628;28;20066;-64
2021/09/15 02:40:51;;;;;;;15.00;10.50;;;13.00;99.90;;;;;;4975494;28;20027;-64
2021/09/15 02:43:17;;;;;;;16.48;10.90;;;13.00;99.90;;;;;;4975527;28;20049;-63
2021/09/15 02:45:42;;;;;;;15.32;10.55;;;13.00;99.90;;;;;;4975305;28;20042;-63
2021/09/15 02:48:08;;;;;;;16.48;11.02;;;12.90;99.90;;;;;;4975212;28;20203;-63
2021/09/15 02:50:33;;;;;;;16.38;11.23;;;12.90;99.90;;;;;;4974254;28;20101;-64
2021/09/15 02:52:59;;;;;;;15.52;9.95;;;12.90;99.90;;;;;;4982214;28;20501;-64
2021/09/15 02:55:25;;;;;;;18.00;12.02;;;12.90;99.90;;;;;;4994700;28;20034;-63
2021/09/15 02:57:51;;;;;;;17.83;11.57;;;13.00;99.90;;;;;;4994811;28;20026;-63
2021/09/15 03:00:16;;;;;;;12.73;10.93;;;13.00;99.90;;;;;;4994583;28;20034;-63
2021/09/15 03:02:42;;;;;;;18.13;12.10;;;13.00;99.90;;;;;;4994602;28;20109;-63
2021/09/15 03:05:08;;;;;;;13.65;10.85;;;13.00;99.90;;;;;;4993147;28;20034;-63
2021/09/15 03:07:34;;;;;;;12.73;10.57;;;13.00;99.90;;;;;;4994512;28;20041;-60
2021/09/15 03:09:59;;;;;;;14.18;10.57;;;13.00;99.90;;;;;;4994257;28;20461;-64
2021/09/15 03:12:25;;;;;;;15.30;11.13;;;13.00;99.90;;;;;;4994803;28;20410;-62
2021/09/15 03:14:50;;;;;;;20.63;11.30;;;13.10;99.90;;;;;;4994359;28;20029;-64
2021/09/15 03:17:16;;;;;;;14.90;11.10;;;13.10;99.90;;;;;;4994270;28;20026;-59
2021/09/15 03:19:41;;;;;;;17.58;12.13;;;13.20;99.90;;;;;;4993877;28;20026;-64
2021/09/15 03:22:07;;;;;;;16.75;12.43;;;13.20;99.90;;;;;;4992950;28;20154;-63
2021/09/15 03:24:32;;;;;;;17.92;12.10;;;13.10;99.90;;;;;;4994029;28;20076;-64
2021/09/15 03:26:58;;;;;;;20.95;12.50;;;13.20;99.90;;;;;;4994322;28;20434;-64
2021/09/15 03:29:24;;;;;;;19.48;12.30;;;13.20;99.90;;;;;;4994088;28;20026;-64
2021/09/15 03:31:49;;;;;;;18.70;12.38;;;13.20;99.90;;;;;;4993945;28;20465;-62
2021/09/15 03:34:15;;;;;;;23.27;12.68;;;13.20;99.90;;;;;;4993983;28;20034;-63
2021/09/15 03:36:40;;;;;;;19.45;12.48;;;13.20;99.90;;;;;;4992770;28;20018;-60
2021/09/15 03:39:06;;;;;;;22.77;13.38;;;13.20;99.90;;;;;;4993840;28;20026;-63
2021/09/15 03:41:32;;;;;;;18.50;12.45;;;13.10;99.90;;;;;;4993819;28;20022;-63
2021/09/15 03:43:57;;;;;;;16.80;11.45;;;13.10;99.90;;;;;;4993762;28;20034;-64
2021/09/15 03:46:23;;;;;;;17.98;11.68;;;13.10;99.90;;;;;;4993725;28;20042;-63
2021/09/15 03:48:48;;;;;;;16.50;11.68;;;13.10;99.90;;;;;;4993498;28;20490;-64
2021/09/15 03:51:14;;;;;;;14.60;11.25;;;13.10;99.90;;;;;;4992368;28;20035;-62
2021/09/15 03:53:40;;;;;;;17.02;12.35;;;13.00;99.90;;;;;;4993434;28;20046;-62
2021/09/15 03:56:06;;;;;;;19.10;13.68;;;13.00;99.90;;;;;;4993504;28;20033;-63
2021/09/15 03:58:32;;;;;;;16.73;12.38;;;13.00;99.90;;;;;;4993639;28;20030;-62
2021/09/15 04:00:57;;;;;;;17.23;12.43;;;13.10;99.90;;;;;;4993636;28;20085;-63
2021/09/15 04:03:23;;;;;;;15.13;11.25;;;13.00;99.90;;;;;;4993068;28;20070;-59
2021/09/15 04:05:48;;;;;;;15.52;11.40;;;13.10;99.90;;;;;;4992221;28;20033;-64
2021/09/15 04:08:14;;;;;;;16.17;10.85;;;13.10;99.90;;;;;;4993227;28;20022;-62
2021/09/15 04:10:39;;;;;;;17.20;12.05;;;13.10;99.90;;;;;;4993442;28;20031;-64
2021/09/15 04:13:05;;;;;;;17.48;11.25;;;13.10;99.90;;;;;;4993418;28;20022;-60
2021/09/15 04:15:30;;;;;;;18.45;13.43;;;13.10;99.90;;;;;;4993473;28;20544;-63
2021/09/15 04:17:56;;;;;;;17.88;13.27;;;13.10;99.90;;;;;;4993377;28;20026;-60
2021/09/15 04:20:22;;;;;;;20.23;12.35;;;13.10;99.90;;;;;;4991946;28;20034;-63
2021/09/15 04:22:48;;;;;;;21.08;13.23;;;13.10;99.90;;;;;;4993249;28;20033;-63
2021/09/15 04:33:26;;;;;;;23.02;14.27;;;13.20;99.90;;;;;;4992938;28;20034;-63
2021/09/15 04:35:51;;;;;;;19.77;13.90;;;13.10;99.90;;;;;;4991857;28;20023;-62
2021/09/15 04:38:17;;;;;;;18.65;12.57;;;13.20;99.90;;;;;;4993201;28;20031;-63
2021/09/15 04:40:42;;;;;;;22.20;13.40;;;13.20;99.90;;;;;;4993077;28;20034;-63
2021/09/15 04:43:08;;;;;;;18.83;13.07;;;13.30;99.90;;;;;;4989527;28;20034;-63
2021/09/15 04:45:33;;;;;;;20.10;12.88;;;13.30;99.90;;;;;;4987753;28;20049;-63
2021/09/15 04:47:59;;;;;;;17.52;12.27;;;13.30;99.90;;;;;;4985435;28;20058;-62
2021/09/15 04:50:24;;;;;;;13.20;10.40;;;13.40;99.90;;;;;;4990243;28;20030;-62
2021/09/15 04:52:50;;;;;;;13.93;11.68;;;13.40;99.90;;;;;;4990595;28;20022;-62
2021/09/15 04:55:15;;;;;;;16.15;12.88;;;13.50;99.90;;;;;;4990990;28;20076;-63
2021/09/15 04:57:41;;;;;;;18.27;13.32;;;13.50;99.90;;;;;;4990918;28;20473;-63
2021/09/15 05:00:07;;;;;;;17.90;12.55;;;13.60;99.90;;;;;;4989928;28;20034;-64
2021/09/15 05:02:33;;;;;;;18.88;11.75;;;13.70;99.90;;;;;;4990809;28;20034;-62
2021/09/15 05:04:58;;;;;;;17.10;12.25;;;13.70;99.90;;;;;;4989614;28;20045;-63
2021/09/15 05:07:24;;;;;;;20.63;13.93;;;13.70;99.90;;;;;;4990710;28;20389;-61
2021/09/15 05:09:49;;;;;;;24.00;13.23;;;13.70;99.90;;;;;;4991055;28;20401;-63
2021/09/15 05:12:14;;;;;;;16.80;11.82;;;13.70;99.90;;;;;;4991135;28;20027;-63
2021/09/15 05:14:40;;;;;;;19.90;13.73;;;13.70;99.90;;;;;;4990851;28;20033;-63
2021/09/15 05:17:06;;;;;;;17.42;11.90;;;13.70;99.90;;;;;;4991012;28;20069;-62
2021/09/15 05:19:32;;;;;;;15.38;12.13;;;13.80;99.90;;;;;;4989383;28;20433;-61
2021/09/15 05:21:57;;;;;;;17.05;12.48;;;13.80;99.90;;;;;;4989755;28;20034;-63
2021/09/15 05:24:23;;;;;;;18.42;13.35;;;13.80;99.90;;;;;;4991020;28;20061;-60
2021/09/15 05:26:48;;;;;;;16.63;11.55;;;13.80;99.90;;;;;;4990838;28;20474;-63
2021/09/15 05:29:14;;;;;;;21.00;12.63;;;13.80;99.90;;;;;;4991075;28;20105;-63
2021/09/15 05:31:39;;;;;;;18.15;13.65;;;13.90;99.90;;;;;;4990812;28;20026;-64
2021/09/15 05:34:05;;;;;;;18.67;13.35;;;13.90;99.90;;;;;;4990772;28;20026;-60
2021/09/15 05:36:30;;;;;;;17.40;12.95;;;13.90;99.90;;;;;;4989404;28;20106;-62
2021/09/15 05:38:56;;;;;;;19.48;13.82;;;13.90;99.90;;;;;;4990896;28;20528;-62
2021/09/15 05:41:21;;;;;;;14.65;11.98;;;14.00;99.90;;;;;;4992528;28;20109;-62
2021/09/15 05:43:47;;;;;;;14.95;11.93;;;14.00;99.90;;;;;;4992686;28;20046;-61
2021/09/15 05:46:12;;;;;;;13.27;10.45;;;14.10;99.90;;;;;;4995699;28;20038;-64
2021/09/15 05:48:38;;;;;;;15.15;11.15;;;14.20;99.90;;;;;;4995645;28;20054;-64
2021/09/15 05:51:03;;;;;;;14.43;11.93;;;14.30;99.90;;;;;;4994577;28;20027;-63
2021/09/15 05:53:29;;;;;;;17.50;14.20;;;14.30;99.90;;;;;;4984839;28;20027;-65
2021/09/15 05:55:55;;;;;;;16.58;12.88;;;14.30;99.90;;;;;;4976383;28;20037;-65
2021/09/15 05:58:21;;;;;;;15.32;11.50;;;14.40;99.90;;;;;;4976367;28;20031;-65
2021/09/15 06:00:46;;;;;;;16.75;13.50;;;14.50;99.90;;;;;;4976314;28;20540;-65
2021/09/15 06:03:12;;;;;;;15.88;11.82;;;14.50;99.90;;;;;;4976211;28;20031;-66
2021/09/15 06:05:38;;;;;;;17.17;12.60;;;14.60;99.90;;;;;;4974743;28;20030;-64
2021/09/15 06:08:04;;;;;;;19.67;12.77;;;14.70;99.90;;;;;;4976161;28;20031;-65
2021/09/15 06:10:29;;;;;;;19.05;13.93;;;14.70;99.90;;;;;;4976190;28;20023;-66
2021/09/15 06:12:55;;;;;;;16.15;12.50;;;14.80;99.90;;;;;;4975936;28;20033;-61
2021/09/15 06:15:20;;;;;;;14.85;11.57;;;14.80;99.90;;;;;;4992168;28;20489;-65
2021/09/15 06:17:46;;;;;;;15.30;11.93;;;14.90;99.90;;;;;;4995286;28;20030;-64
2021/09/15 06:20:12;;;;;;;18.38;12.93;;;15.00;99.90;;;;;;4994129;28;20081;-61
2021/09/15 06:22:38;;;;;;;14.38;12.15;;;15.00;99.90;;;;;;4993941;28;20030;-66
2021/09/15 06:25:04;;;;;;;20.52;12.10;;;15.10;99.90;;;;;;4995364;28;20053;-65
2021/09/15 06:27:29;;;;;;;14.80;10.85;;;15.20;99.90;;;;;;4995071;28;20034;-65
2021/09/15 06:29:55;;;;;;;14.15;10.85;;;15.40;99.90;;;;;;4995368;28;20073;-64
2021/09/15 06:32:21;;;;;;;12.57;9.70;;;15.60;99.90;;;;;;4993619;28;20030;-64
2021/09/15 06:34:47;;;;;;;14.32;10.27;;;15.80;99.90;;;;;;4995197;28;20084;-63
2021/09/15 06:37:14;;;;;;;15.68;11.55;;;16.10;99.90;;;;;;4993579;28;20015;-64
2021/09/15 06:39:40;;;;;;;14.18;10.18;;;16.10;99.90;;;;;;4994879;28;20030;-65
2021/09/15 06:42:06;;;;;;;12.82;10.15;;;16.20;99.90;;;;;;4995114;28;20381;-62
2021/09/15 06:44:32;;;;;;;14.05;9.70;;;16.40;99.90;;;;;;4994867;28;20058;-66
2021/09/15 06:46:57;;;;;;;11.75;9.80;;;16.50;99.90;;;;;;4994728;28;20038;-65
2021/09/15 06:49:23;;;;;;;14.05;8.98;;;16.80;99.90;;;;;;4994600;28;20398;-61
2021/09/15 06:51:48;;;;;;;13.23;10.23;;;17.30;99.90;;;;;;4993315;28;20033;-62
2021/09/15 06:54:14;;;;;;;11.13;8.80;;;17.90;99.90;;;;;;4993873;28;20027;-60
2021/09/15 06:56:39;;;;;;;12.20;9.82;;;18.60;99.90;;;;;;4994521;28;20052;-60
2021/09/15 06:59:05;;;;;;;9.80;8.45;;;18.80;99.90;;;;;;4994744;28;20481;-59
2021/09/15 07:01:30;;;;;;;12.43;9.52;;;18.80;99.90;;;;;;4994374;28;20026;-56
2021/09/15 07:03:56;;;;;;;10.63;8.38;;;19.30;99.90;;;;;;4994662;28;20058;-59
2021/09/15 07:06:22;;;;;;;12.68;8.73;;;20.10;99.90;;;;;;4993178;28;20041;-61
2021/09/15 07:08:51;;;;;;;12.05;8.30;;;20.90;99.90;;;;;;4994428;28;20061;-60
2021/09/15 07:11:17;;;;;;;9.82;7.15;;;21.60;99.90;;;;;;4994519;28;20018;-60
2021/09/15 07:13:42;;;;;;;11.52;7.95;;;22.50;99.90;;;;;;4991330;28;20027;-61
2021/09/15 07:16:08;;;;;;;10.10;7.63;;;22.60;93.90;;;;;;4974855;28;20035;-61
2021/09/15 07:18:33;;;;;;;7.35;6.38;;;22.80;99.90;;;;;;4974770;28;20034;-60
2021/09/15 07:20:59;;;;;;;8.65;7.07;;;23.30;99.90;;;;;;4973751;28;20081;-60
2021/09/15 07:23:25;;;;;;;7.50;6.60;;;23.70;99.90;;;;;;4974649;28;20388;-61
2021/09/15 07:25:51;;;;;;;10.63;8.02;;;23.70;99.90;;;;;;4974636;28;20038;-61
2021/09/15 07:28:16;;;;;;;9.43;7.07;;;23.50;97.60;;;;;;4974700;28;20027;-62
2021/09/15 07:30:42;;;;;;;7.25;6.55;;;23.60;98.90;;;;;;4974449;28;20080;-61
2021/09/15 07:33:07;;;;;;;7.40;6.60;;;23.70;92.90;;;;;;4974617;28;20035;-61
2021/09/15 07:35:33;;;;;;;7.15;6.45;;;23.90;95.20;;;;;;4973228;28;20027;-61
2021/09/15 07:37:58;;;;;;;8.18;6.88;;;24.60;95.20;;;;;;4974451;28;20426;-61
2021/09/15 07:40:24;;;;;;;6.72;6.10;;;24.60;90.80;;;;;;4974652;28;20499;-60
2021/09/15 07:42:50;;;;;;;8.52;6.88;;;25.10;92.00;;;;;;4974332;28;20493;-61
2021/09/15 07:45:15;;;;;;;9.07;7.40;;;25.60;78.30;;;;;;4974334;28;20485;-60
2021/09/15 07:47:41;;;;;;;12.70;8.32;;;25.20;78.10;;;;;;4974138;28;20032;-60
2021/09/15 07:50:09;;;;;;;11.00;7.30;;;24.90;70.90;;;;;;4972922;28;20039;-59
2021/09/15 07:52:35;;;;;;;8.00;7.20;;;24.70;73.80;;;;;;4977574;28;20050;-60
2021/09/15 07:55:00;;;;;;;7.90;7.00;;;25.10;77.00;;;;;;4993659;28;20025;-60
2021/09/15 07:57:26;;;;;;;10.23;5.95;;;25.80;80.60;;;;;;4993592;28;20062;-58
2021/09/15 07:59:51;;;;;;;8.95;6.80;;;26.40;77.10;;;;;;4993422;28;20030;-60
2021/09/15 08:02:17;;;;;;;8.73;7.65;;;26.70;65.70;;;;;;4993572;28;20517;-59
2021/09/15 08:04:42;;;;;;;10.82;6.10;;;26.70;66.20;;;;;;4993551;28;20022;-60
2021/09/15 08:07:08;;;;;;;7.07;5.45;;;26.80;67.70;;;;;;4992219;28;20301;-60
2021/09/15 08:09:34;;;;;;;8.20;7.25;;;26.60;59.40;;;;;;4993218;28;20038;-61
2021/09/15 08:12:00;;;;;;;7.93;5.78;;;26.60;63.20;;;;;;4993333;28;20026;-59
2021/09/15 08:14:26;;;;;;;9.70;6.20;;;26.70;69.60;;;;;;4992026;28;20497;-60
2021/09/15 08:16:52;;;;;;;8.40;6.57;;;26.40;61.20;;;;;;4992102;28;20034;-59
2021/09/15 08:19:19;;;;;;;7.32;5.63;;;26.10;60.30;;;;;;4993572;28;20422;-60
2021/09/15 08:21:45;;;;;;;12.07;6.20;;;26.10;62.50;;;;;;4991983;28;20018;-61
2021/09/15 08:24:10;;;;;;;9.07;6.97;;;26.50;66.50;;;;;;4993003;28;20040;-61
2021/09/15 08:26:36;;;;;;;6.57;5.57;;;26.40;61.10;;;;;;4993248;28;20370;-60
2021/09/15 08:29:01;;;;;;;6.45;5.63;;;26.90;61.90;;;;;;4992979;28;20366;-61
2021/09/15 08:31:27;;;;;;;10.30;6.60;;;27.30;65.90;;;;;;4993308;28;20105;-58
2021/09/15 08:33:52;;;;;;;8.98;5.82;;;27.10;64.60;;;;;;4992993;28;20031;-61
2021/09/15 08:36:18;;;;;;;8.63;6.80;;;27.20;54.60;;;;;;4992007;28;20022;-61
2021/09/15 08:38:44;;;;;;;6.63;5.93;;;26.90;54.80;;;;;;4992899;28;20038;-59
2021/09/15 08:41:09;;;;;;;8.45;5.43;;;26.30;65.10;;;;;;4993298;28;20122;-60
2021/09/15 08:43:37;;;;;;;6.25;5.63;;;26.00;64.40;;;;;;4993121;28;20026;-60
2021/09/15 08:46:05;;;;;;;6.30;5.57;;;25.90;67.10;;;;;;4993035;28;20056;-61
2021/09/15 08:48:40;;;;;;;8.20;6.30;;;25.80;66.90;;;;;;4992838;28;20058;-61
2021/09/15 08:51:11;;;;;;;8.20;5.30;;;25.50;65.20;;;;;;4990620;28;20072;-60
2021/09/15 08:53:37;;;;;;;7.45;6.10;;;25.50;67.50;;;;;;4992598;28;20413;-61
2021/09/15 08:56:02;;;;;;;7.70;6.20;;;25.70;68.90;;;;;;4993035;28;20033;-60
2021/09/15 08:58:28;;;;;;;9.85;6.18;;;25.50;66.00;;;;;;4992880;28;20026;-61
2021/09/15 09:01:13;;;;;;;6.25;5.65;;;25.30;70.10;;;;;;4989527;28;20038;-62
2021/09/15 09:03:40;;;;;;;8.20;6.65;;;25.40;65.70;;;;;;4992599;28;20042;-61
2021/09/15 09:06:17;;;;;;;8.60;6.22;;;25.00;66.80;;;;;;4991851;28;20025;-61
2021/09/15 09:08:45;;;;;;;11.07;6.78;;;24.60;71.40;;;;;;4992464;28;20421;-60
2021/09/15 09:11:12;;;;;;;7.90;6.45;;;24.40;74.00;;;;;;4992608;28;20097;-61
2021/09/15 09:13:47;;;;;;;8.55;5.75;;;24.40;75.90;;;;;;4992516;28;20035;-61
2021/09/15 09:16:12;;;;;;;6.43;5.28;;;24.40;76.00;;;;;;4992644;28;20026;-61
2021/09/15 09:18:59;;;;;;;7.45;5.95;;;24.50;76.50;;;;;;4995206;28;20474;-61
2021/09/15 09:21:30;;;;;;;11.10;6.50;;;24.60;75.20;;;;;;4995111;28;20034;-62
2021/09/15 09:23:58;;;;;;;8.25;5.75;;;24.60;75.40;;;;;;4995022;28;20093;-61
2021/09/15 09:27:05;;;;;;;6.22;5.63;;;24.80;75.00;;;;;;4996392;28;20073;-60
2021/09/15 09:29:35;;;;;;;7.80;6.75;;;24.90;73.00;;;;;;4935960;29;20035;-61
2021/09/15 09:32:07;;;;;;;8.32;5.70;;;24.90;73.50;;;;;;4936182;29;20040;-61
2021/09/15 09:34:49;;;;;;;7.43;6.22;;;24.90;73.40;;;;;;4967896;28;20037;-61
2021/09/15 09:37:20;;;;;;;11.50;6.28;;;24.90;74.60;;;;;;4995915;28;20098;-60
2021/09/15 09:39:57;;;;;;;9.45;6.53;;;25.10;70.30;;;;;;4995890;28;20027;-60
2021/09/15 09:42:23;;;;;;;6.93;6.22;;;25.00;72.10;;;;;;4996158;28;20026;-62
2021/09/15 09:45:04;;;;;;;10.30;6.15;;;24.90;72.50;;;;;;4995766;28;20426;-62
2021/09/15 09:47:29;;;;;;;8.38;6.68;;;24.80;72.80;;;;;;4995948;28;20036;-61
2021/09/15 09:50:07;;;;;;;6.55;5.95;;;25.00;72.20;;;;;;4993110;28;20046;-62
2021/09/15 09:53:00;;;;;;;8.57;5.93;;;25.00;72.50;;;;;;4995539;28;20635;-62
2021/09/15 09:55:31;;;;;;;10.05;6.28;;;25.10;75.20;;;;;;4995915;28;20030;-61
2021/09/15 09:57:57;;;;;;;8.05;6.03;;;25.00;72.50;;;;;;4995713;28;20030;-62
2021/09/15 10:00:24;;;;;;;7.25;6.15;;;25.00;73.50;;;;;;4995857;28;20602;-62
2021/09/15 10:02:50;;;;;;;5.82;5.18;;;24.90;73.70;;;;;;4995571;28;20182;-61
2021/09/15 10:05:20;;;;;;;7.28;4.95;;;24.60;74.40;;;;;;4994305;28;20053;-62
2021/09/15 10:07:47;;;;;;;8.90;6.25;;;24.60;75.40;;;;;;4995536;28;20033;-61
2021/09/15 10:10:15;;;;;;;9.68;6.22;;;24.60;75.80;;;;;;4994402;28;20023;-61
2021/09/15 10:12:41;;;;;;;8.77;6.38;;;24.70;76.50;;;;;;4995493;28;20084;-61
2021/09/15 10:15:09;;;;;;;9.13;6.20;;;24.50;77.80;;;;;;4995620;28;20426;-61
2021/09/15 10:17:38;;;;;;;7.30;6.60;;;24.50;78.90;;;;;;4995273;28;20022;-59
2021/09/15 10:20:08;;;;;;;7.15;6.22;;;24.50;79.70;;;;;;4992881;28;20057;-61
2021/09/15 10:22:37;;;;;;;7.40;6.55;;;24.50;79.00;;;;;;4995658;28;20441;-60
2021/09/15 10:25:08;;;;;;;7.70;5.55;;;24.50;79.00;;;;;;4995200;28;20026;-61
2021/09/15 10:28:04;;;;;;;8.35;6.35;;;24.50;80.40;;;;;;4995274;28;20417;-61
2021/09/15 10:30:44;;;;;;;12.80;6.65;;;24.40;82.60;;;;;;4994253;28;20030;-62
2021/09/15 10:33:37;;;;;;;7.47;5.82;;;24.40;82.70;;;;;;4995063;28;20429;-59
2021/09/15 10:36:33;;;;;;;8.82;6.13;;;24.40;84.60;;;;;;4993857;28;20030;-61
2021/09/15 10:39:01;;;;;;;7.35;6.07;;;24.30;85.20;;;;;;4994998;28;20390;-60
2021/09/15 10:41:37;;;;;;;7.15;6.10;;;24.40;83.00;;;;;;4995095;28;20023;-62
2021/09/15 10:44:07;;;;;;;6.82;5.90;;;24.40;85.70;;;;;;4994714;28;20101;-58
2021/09/15 10:46:33;;;;;;;13.45;6.55;;;24.40;84.60;;;;;;4995127;28;20548;-61
2021/09/15 10:49:23;;;;;;;8.00;5.78;;;24.40;85.40;;;;;;4991157;28;20276;-61
2021/09/15 10:52:07;;;;;;;6.20;5.25;;;24.40;87.90;;;;;;4993527;28;20036;-60
2021/09/15 10:54:47;;;;;;;6.50;5.90;;;24.40;90.20;;;;;;4975328;28;20031;-61
2021/09/15 10:57:27;;;;;;;8.15;5.85;;;24.30;89.30;;;;;;4975049;28;20106;-57
2021/09/15 10:59:58;;;;;;;9.32;5.60;;;24.40;87.90;;;;;;4975119;28;20525;-58
2021/09/15 11:02:29;;;;;;;11.25;5.47;;;24.30;90.60;;;;;;4975370;28;20033;-60
2021/09/15 11:04:57;;;;;;;8.50;5.22;;;24.20;89.70;;;;;;4973714;28;20034;-57
2021/09/15 11:07:47;;;;;;;10.35;5.95;;;24.30;89.50;;;;;;4975410;28;20410;-60
2021/09/15 11:10:34;;;;;;;8.55;5.90;;;24.30;90.40;;;;;;4974937;28;20523;-60
2021/09/15 11:13:39;;;;;;;8.18;5.28;;;24.30;91.30;;;;;;4974816;28;20097;-61
2021/09/15 11:16:37;;;;;;;6.85;5.53;;;24.40;90.40;;;;;;4974543;28;20027;-60
2021/09/15 11:19:07;;;;;;;7.20;5.57;;;24.40;90.40;;;;;;4974601;28;20031;-61
2021/09/15 11:21:36;;;;;;;6.82;5.78;;;24.30;90.10;;;;;;4973838;28;20474;-60
2021/09/15 11:24:13;;;;;;;7.97;5.97;;;24.40;90.10;;;;;;4974750;28;20062;-58
2021/09/15 11:26:46;;;;;;;11.38;5.93;;;24.30;90.70;;;;;;4986054;28;20030;-62
2021/09/15 11:29:14;;;;;;;7.03;6.00;;;24.40;91.30;;;;;;4993694;28;20034;-62
2021/09/15 11:31:42;;;;;;;9.20;6.45;;;24.50;90.60;;;;;;4994316;28;20037;-63
2021/09/15 11:34:14;;;;;;;10.15;6.05;;;24.60;90.50;;;;;;4993915;28;20541;-61
2021/09/15 11:36:47;;;;;;;9.35;5.72;;;24.70;90.10;;;;;;4992144;28;20418;-60
2021/09/15 11:39:17;;;;;;;6.97;5.63;;;24.90;89.40;;;;;;4993695;28;20030;-61
2021/09/15 11:41:43;;;;;;;8.30;5.68;;;25.00;87.90;;;;;;4993781;28;20022;-61
2021/09/15 11:44:08;;;;;;;6.60;5.85;;;25.10;86.10;;;;;;4993636;28;20505;-59
2021/09/15 11:46:36;;;;;;;8.57;6.70;;;25.20;84.40;;;;;;4993978;28;20030;-61
2021/09/15 11:49:04;;;;;;;6.80;6.05;;;25.20;82.50;;;;;;4993484;28;20050;-62
2021/09/15 11:51:33;;;;;;;7.18;5.13;;;25.20;81.80;;;;;;4992842;28;20029;-61
2021/09/15 11:54:11;;;;;;;8.73;6.72;;;25.20;83.30;;;;;;4978657;28;20265;-60
2021/09/15 11:59:16;;;;;;;9.35;6.03;;;25.10;81.20;;;;;;4973863;28;20022;-62
2021/09/15 12:01:43;;;;;;;7.43;6.25;;;25.10;81.20;;;;;;4974205;28;20054;-63
2021/09/15 12:04:13;;;;;;;6.55;5.85;;;25.20;81.70;;;;;;4973773;28;20502;-61
2021/09/15 12:06:41;;;;;;;6.20;5.60;;;25.20;80.60;;;;;;4972923;28;20031;-60
2021/09/15 12:09:09;;;;;;;6.50;5.68;;;25.30;81.60;;;;;;4973854;28;20030;-61
2021/09/15 12:11:36;;;;;;;6.60;5.30;;;25.30;82.60;;;;;;4973951;28;20069;-59
2021/09/15 12:14:06;;;;;;;9.02;5.78;;;25.40;82.40;;;;;;4978953;28;20548;-61
2021/09/15 12:16:35;;;;;;;7.75;6.05;;;25.40;82.40;;;;;;4993044;28;20413;-61
2021/09/15 12:19:01;;;;;;;5.80;5.25;;;25.30;81.30;;;;;;4993198;28;20026;-63
2021/09/15 12:21:29;;;;;;;5.55;5.05;;;25.40;81.40;;;;;;4992177;28;20022;-61
2021/09/15 12:24:04;;;;;;;7.13;4.40;;;25.30;81.30;;;;;;4993182;28;20384;-60
2021/09/15 12:26:29;;;;;;;7.00;4.88;;;25.40;80.70;;;;;;4993455;28;20477;-60
2021/09/15 12:29:04;;;;;;;6.13;5.50;;;25.50;81.30;;;;;;4992769;28;20035;-60
2021/09/15 12:31:43;;;;;;;4.82;4.30;;;25.50;81.10;;;;;;4993457;28;20081;-59
2021/09/15 12:34:09;;;;;;;4.75;4.18;;;25.60;80.90;;;;;;4992950;28;20482;-60
2021/09/15 12:36:36;;;;;;;6.05;5.05;;;25.70;81.10;;;;;;4992003;28;20030;-60
2021/09/15 12:39:14;;;;;;;6.97;4.88;;;25.70;80.50;;;;;;4993143;28;20331;-58
2021/09/15 12:41:49;;;;;;;4.95;4.45;;;25.70;79.30;;;;;;4992945;28;20030;-61
2021/09/15 12:44:14;;;;;;;6.47;5.50;;;25.60;76.00;;;;;;4992594;28;20037;-61
2021/09/15 12:46:48;;;;;;;7.10;4.93;;;25.60;78.30;;;;;;4993076;28;20052;-57
2021/09/15 12:49:43;;;;;;;6.25;5.10;;;25.60;77.50;;;;;;4992717;28;20061;-61
2021/09/15 12:52:14;;;;;;;6.10;5.32;;;25.50;77.70;;;;;;4992810;28;20033;-61